Time;durP1;ratioP1;P1;durP2;ratioP2;P2;SDS_P1;SDS_P2;PMS_P1;PMS_P2;Temp;Humidity;BMP_temperature;BMP_pressure;BME280_temperature;BME280_humidity;BME280_pressure;Samples;Min_cycle;Max_cycle;Signal;HPM_P1;HPM_P2
2022/04/18 00:01:07;;;;;;;3.53;2.90;;;13.40;39.70;;;;;;4993813;28;20483;-86
2022/04/18 00:03:37;;;;;;;3.03;2.80;;;13.30;39.90;;;;;;4994769;28;20450;-82
2022/04/18 00:06:04;;;;;;;4.67;2.83;;;13.30;40.00;;;;;;4991902;28;20459;-85
2022/04/18 00:08:34;;;;;;;3.00;2.70;;;13.30;40.00;;;;;;4991043;28;20495;-84
2022/04/18 00:11:01;;;;;;;3.17;2.97;;;13.20;39.70;;;;;;4992917;28;21036;-85
2022/04/18 00:13:28;;;;;;;3.13;2.83;;;13.20;39.90;;;;;;4991880;28;20455;-86
2022/04/18 00:16:04;;;;;;;3.50;2.60;;;13.20;39.90;;;;;;4990824;28;20718;-84
2022/04/18 00:18:31;;;;;;;3.20;2.53;;;13.00;39.50;;;;;;4992964;28;20498;-83
2022/04/18 00:21:11;;;;;;;2.70;2.50;;;12.80;39.60;;;;;;4992014;28;20462;-82
2022/04/18 00:23:38;;;;;;;3.30;3.00;;;12.80;39.90;;;;;;5001685;28;20435;-86
2022/04/18 00:26:12;;;;;;;3.77;3.00;;;12.70;40.30;;;;;;5011091;28;20452;-83
2022/04/18 00:28:50;;;;;;;2.63;2.47;;;12.60;40.70;;;;;;5001766;28;21122;-85
2022/04/18 00:31:33;;;;;;;3.40;3.03;;;12.90;41.00;;;;;;5013052;28;20442;-87
2022/04/18 00:37:54;;;;;;;5.20;2.90;;;12.80;40.40;;;;;;4962555;28;20461;-84
2022/04/18 00:40:23;;;;;;;3.00;2.60;;;12.90;40.40;;;;;;4945243;29;20541;-84
2022/04/18 00:46:35;;;;;;;2.57;2.37;;;12.70;40.70;;;;;;4959111;28;20420;-83
2022/04/18 00:49:11;;;;;;;3.07;2.17;;;12.70;41.30;;;;;;4939563;29;20637;-85
2022/04/18 00:51:38;;;;;;;2.50;2.30;;;12.50;40.90;;;;;;5011049;28;20461;-84
2022/04/18 00:54:05;;;;;;;3.57;2.33;;;12.60;41.10;;;;;;5013596;28;20462;-86
2022/04/18 00:56:32;;;;;;;2.10;1.90;;;12.50;40.90;;;;;;5012471;28;20515;-84
2022/04/18 00:59:20;;;;;;;3.30;3.00;;;12.60;41.10;;;;;;5013047;28;20459;-86
2022/04/18 01:01:47;;;;;;;2.60;2.40;;;12.60;41.20;;;;;;5009430;28;20464;-84
2022/04/18 01:04:26;;;;;;;3.50;3.00;;;12.80;40.80;;;;;;5007253;28;20462;-86
2022/04/18 01:06:53;;;;;;;3.27;2.97;;;12.70;40.60;;;;;;5007934;28;20447;-86
2022/04/18 01:09:20;;;;;;;3.00;2.77;;;12.60;40.80;;;;;;5006407;28;20507;-85
2022/04/18 01:11:59;;;;;;;2.80;2.33;;;12.60;41.50;;;;;;5006702;28;20463;-87
2022/04/18 01:14:29;;;;;;;3.70;3.03;;;12.60;41.20;;;;;;5000886;28;20578;-87
2022/04/18 01:16:58;;;;;;;2.77;2.53;;;12.40;40.90;;;;;;5000722;28;20496;-84
2022/04/18 01:19:25;;;;;;;2.90;2.53;;;12.30;41.10;;;;;;5001408;28;20481;-83
2022/04/18 01:21:51;;;;;;;3.10;2.83;;;12.20;41.60;;;;;;5002699;28;20435;-86
2022/04/18 01:29:56;;;;;;;2.80;2.50;;;12.50;41.80;;;;;;4997705;28;20491;-84
2022/04/18 01:33:20;;;;;;;2.83;2.60;;;12.50;41.20;;;;;;4902409;29;20902;-85
2022/04/18 01:35:47;;;;;;;2.37;2.17;;;12.40;41.60;;;;;;4911200;29;20450;-85
2022/04/18 01:38:14;;;;;;;2.40;2.20;;;12.30;42.00;;;;;;4912586;29;20484;-86
2022/04/18 01:40:41;;;;;;;2.80;2.60;;;12.20;42.10;;;;;;4927695;29;20569;-88
2022/04/18 01:43:08;;;;;;;2.97;2.70;;;12.20;42.50;;;;;;4928049;28;20724;-86
2022/04/18 01:45:35;;;;;;;2.80;2.60;;;12.30;42.10;;;;;;4927128;28;20523;-86
2022/04/18 01:48:02;;;;;;;2.70;2.50;;;12.30;41.70;;;;;;4966859;23;20478;-85
2022/04/18 01:50:33;;;;;;;2.33;2.13;;;12.40;41.60;;;;;;4989303;28;20468;-87
2022/04/18 01:53:00;;;;;;;3.10;2.83;;;12.30;41.70;;;;;;4991136;28;20523;-87
2022/04/18 01:55:29;;;;;;;3.13;2.90;;;12.50;41.90;;;;;;4991807;28;20540;-87
2022/04/18 02:01:06;;;;;;;2.50;2.30;;;12.30;42.00;;;;;;4929696;28;20455;-86
2022/04/18 02:03:59;;;;;;;4.67;2.70;;;12.20;42.40;;;;;;4928623;29;20446;-84
2022/04/18 02:07:22;;;;;;;3.93;3.17;;;12.20;42.90;;;;;;4956355;28;20486;-86
2022/04/18 02:09:49;;;;;;;2.30;2.10;;;12.20;43.30;;;;;;4973826;28;20496;-86
2022/04/18 02:12:18;;;;;;;3.60;3.07;;;12.10;43.50;;;;;;4993735;28;20474;-86
2022/04/18 02:14:45;;;;;;;4.00;2.53;;;12.20;43.70;;;;;;4975491;28;20479;-85
2022/04/18 02:17:12;;;;;;;2.30;2.10;;;12.00;43.60;;;;;;4958935;28;20576;-84
2022/04/18 02:19:39;;;;;;;3.93;2.40;;;12.00;43.50;;;;;;4959742;28;20491;-85
2022/04/18 02:22:06;;;;;;;3.00;2.63;;;12.00;43.80;;;;;;4959616;28;20460;-84
2022/04/18 02:24:36;;;;;;;2.23;2.00;;;11.80;43.90;;;;;;4958421;28;20451;-85
2022/04/18 02:27:26;;;;;;;2.37;2.20;;;11.70;44.50;;;;;;4922902;29;20461;-85
2022/04/18 02:30:16;;;;;;;2.60;2.40;;;11.80;44.90;;;;;;4919102;28;20495;-85
2022/04/18 02:32:51;;;;;;;2.20;2.00;;;11.80;44.40;;;;;;4933621;29;20993;-83
2022/04/18 02:35:32;;;;;;;2.70;2.50;;;11.80;44.70;;;;;;4931441;29;20461;-84
2022/04/18 02:38:01;;;;;;;2.70;2.50;;;11.80;44.80;;;;;;4918118;29;20548;-85
2022/04/18 02:40:40;;;;;;;2.63;2.43;;;11.80;44.40;;;;;;4930299;28;20553;-87
2022/04/18 02:43:17;;;;;;;4.03;2.30;;;11.70;44.20;;;;;;4916723;29;20445;-85
2022/04/18 02:45:45;;;;;;;3.00;2.80;;;11.60;44.30;;;;;;4911247;29;20491;-85
2022/04/18 02:48:31;;;;;;;5.63;2.67;;;11.60;44.60;;;;;;4927851;29;20523;-87
2022/04/18 02:50:58;;;;;;;3.90;2.90;;;11.60;44.70;;;;;;4915345;29;20465;-83
2022/04/18 02:53:25;;;;;;;3.60;2.80;;;11.60;44.80;;;;;;4923972;29;20466;-85
2022/04/18 02:55:51;;;;;;;2.43;2.00;;;11.40;44.70;;;;;;4909737;29;20576;-84
2022/04/18 02:58:19;;;;;;;3.03;2.50;;;11.30;45.50;;;;;;4911227;29;20488;-84
2022/04/18 03:00:46;;;;;;;3.00;2.47;;;11.20;45.40;;;;;;4914256;29;20477;-86
2022/04/18 03:03:14;;;;;;;2.53;2.33;;;11.30;45.50;;;;;;4917541;29;20512;-85
2022/04/18 03:05:42;;;;;;;2.53;2.23;;;11.30;45.20;;;;;;4951890;28;20483;-86
2022/04/18 03:08:10;;;;;;;3.67;2.40;;;11.30;45.00;;;;;;4954181;28;20487;-87
2022/04/18 03:13:23;;;;;;;2.83;2.63;;;11.20;44.80;;;;;;4974626;28;20471;-87
2022/04/18 03:15:51;;;;;;;2.37;1.97;;;11.20;45.00;;;;;;4956131;28;20471;-85
2022/04/18 03:18:18;;;;;;;2.70;2.50;;;11.10;45.40;;;;;;4951509;28;20495;-84
2022/04/18 03:20:46;;;;;;;5.03;2.30;;;11.00;45.60;;;;;;4952573;28;20609;-86
2022/04/18 03:23:13;;;;;;;3.83;3.00;;;11.10;45.80;;;;;;4953596;28;20549;-86
2022/04/18 03:25:40;;;;;;;3.73;2.23;;;11.10;45.60;;;;;;4957987;28;20495;-84
2022/04/18 03:28:07;;;;;;;4.33;2.53;;;11.20;45.50;;;;;;5056592;23;20470;-84
2022/04/18 03:30:34;;;;;;;4.50;2.50;;;11.20;45.40;;;;;;4965716;28;20544;-85
2022/04/18 03:33:01;;;;;;;2.83;2.53;;;11.20;45.50;;;;;;4963140;28;20475;-85
2022/04/18 03:35:30;;;;;;;2.80;2.60;;;11.20;45.40;;;;;;4961342;28;20464;-83
2022/04/18 03:40:44;;;;;;;2.57;1.90;;;10.90;45.60;;;;;;4972916;28;20470;-83
2022/04/18 03:43:11;;;;;;;3.13;2.30;;;11.20;46.10;;;;;;4974629;28;20452;-84
2022/04/18 03:45:38;;;;;;;2.47;2.27;;;11.10;45.70;;;;;;4968755;28;20460;-86
2022/04/18 03:48:07;;;;;;;2.30;2.10;;;11.10;45.80;;;;;;4963900;28;20493;-83
2022/04/18 03:50:41;;;;;;;2.13;1.97;;;11.00;45.90;;;;;;4967280;28;20464;-83
2022/04/18 03:53:38;;;;;;;2.47;2.27;;;10.90;46.20;;;;;;4974112;28;20458;-85
2022/04/18 03:56:08;;;;;;;2.57;2.37;;;11.00;46.10;;;;;;4973814;28;20503;-84
2022/04/18 03:58:34;;;;;;;2.60;2.40;;;11.00;46.20;;;;;;5251958;23;20940;-84
2022/04/18 04:01:01;;;;;;;2.57;2.37;;;10.90;46.10;;;;;;4961635;28;20474;-83
2022/04/18 04:03:28;;;;;;;2.00;1.90;;;11.00;46.00;;;;;;4975414;28;20447;-84
2022/04/18 04:05:56;;;;;;;2.23;2.03;;;10.80;46.20;;;;;;4969686;28;20443;-87
2022/04/18 04:08:23;;;;;;;2.80;2.60;;;10.90;46.30;;;;;;4976513;28;20484;-85
2022/04/18 04:10:50;;;;;;;6.77;2.23;;;10.80;46.60;;;;;;4965186;28;20459;-84
2022/04/18 04:13:20;;;;;;;6.37;2.70;;;10.70;46.90;;;;;;4975719;28;20451;-86
2022/04/18 04:15:47;;;;;;;2.63;2.20;;;10.70;47.10;;;;;;4979058;28;20472;-85
2022/04/18 04:18:18;;;;;;;3.53;2.40;;;10.80;47.10;;;;;;4979202;28;20539;-86
2022/04/18 04:20:44;;;;;;;3.00;2.80;;;10.90;46.80;;;;;;4979683;28;20527;-84
2022/04/18 04:23:15;;;;;;;3.57;2.37;;;10.80;46.50;;;;;;4994424;28;20455;-84
2022/04/18 04:25:41;;;;;;;6.50;2.10;;;10.70;46.90;;;;;;4977688;28;20527;-86
2022/04/18 04:28:09;;;;;;;2.73;2.40;;;10.70;46.60;;;;;;4973856;28;20487;-84
2022/04/18 04:30:36;;;;;;;3.40;2.50;;;10.70;46.80;;;;;;4970620;28;20522;-85
2022/04/18 04:33:03;;;;;;;2.47;2.23;;;10.80;47.00;;;;;;4968792;28;20452;-85
2022/04/18 04:35:29;;;;;;;4.30;2.43;;;10.70;47.10;;;;;;4966823;28;20464;-83
2022/04/18 04:37:56;;;;;;;2.43;2.23;;;10.80;47.30;;;;;;4973340;28;20487;-82
2022/04/18 04:40:30;;;;;;;2.10;2.00;;;10.70;47.10;;;;;;4970747;28;20452;-85
2022/04/18 04:43:00;;;;;;;2.40;2.20;;;10.80;47.30;;;;;;4965571;28;20464;-84
2022/04/18 04:45:36;;;;;;;3.30;2.07;;;10.70;47.30;;;;;;4955220;28;20555;-84
2022/04/18 04:48:09;;;;;;;2.77;2.53;;;10.70;47.30;;;;;;4968452;28;20523;-86
2022/04/18 04:51:10;;;;;;;2.83;2.40;;;10.70;47.50;;;;;;4973658;28;20583;-85
2022/04/18 04:54:05;;;;;;;2.30;2.10;;;10.50;47.90;;;;;;4976087;28;20483;-85
2022/04/18 04:56:35;;;;;;;2.30;2.10;;;10.50;48.20;;;;;;4968719;28;20475;-86
2022/04/18 04:59:45;;;;;;;2.23;2.03;;;10.40;48.30;;;;;;4966571;28;20484;-85
2022/04/18 05:02:14;;;;;;;3.13;2.07;;;10.40;48.40;;;;;;4948867;28;20484;-84
2022/04/18 05:04:51;;;;;;;2.57;2.37;;;10.30;48.60;;;;;;4966208;28;20471;-85
2022/04/18 05:07:41;;;;;;;3.67;2.30;;;10.30;48.60;;;;;;4951286;28;20587;-83
2022/04/18 05:10:17;;;;;;;4.40;2.73;;;10.70;48.50;;;;;;4952317;28;20492;-82
2022/04/18 05:12:51;;;;;;;2.70;2.50;;;10.70;48.10;;;;;;4950915;28;20448;-84
2022/04/18 05:15:27;;;;;;;2.80;2.60;;;10.80;48.00;;;;;;4955605;28;20577;-84
2022/04/18 05:18:15;;;;;;;2.53;2.33;;;10.70;48.00;;;;;;4999690;23;20444;-85
2022/04/18 05:20:44;;;;;;;2.50;2.30;;;10.60;48.20;;;;;;4939746;28;20454;-85
2022/04/18 05:23:12;;;;;;;2.20;2.00;;;10.70;48.40;;;;;;4917479;28;20454;-85
2022/04/18 05:25:44;;;;;;;2.43;2.23;;;10.80;48.10;;;;;;4953213;28;20458;-85
2022/04/18 05:28:32;;;;;;;2.97;2.40;;;10.80;48.00;;;;;;4943733;28;20461;-84
2022/04/18 05:31:25;;;;;;;2.93;2.50;;;10.70;47.90;;;;;;4951754;28;20467;-84
2022/04/18 05:33:55;;;;;;;3.60;2.30;;;10.50;48.20;;;;;;4949688;28;20466;-84
2022/04/18 05:36:29;;;;;;;2.83;2.40;;;10.60;48.50;;;;;;4938030;28;20457;-86
2022/04/18 05:39:10;;;;;;;4.70;3.13;;;10.70;48.60;;;;;;4937008;28;20548;-86
2022/04/18 05:41:36;;;;;;;2.70;2.50;;;10.80;48.40;;;;;;4949269;28;20440;-84
2022/04/18 05:44:06;;;;;;;2.47;2.33;;;10.80;48.00;;;;;;4936053;28;20464;-86
2022/04/18 05:46:33;;;;;;;3.03;2.40;;;10.90;47.80;;;;;;4946821;28;20465;-86
2022/04/18 05:49:07;;;;;;;2.53;2.33;;;10.80;48.00;;;;;;4938125;28;20899;-84
2022/04/18 05:51:38;;;;;;;2.70;2.50;;;10.70;47.90;;;;;;4945033;28;20463;-85
2022/04/18 05:54:11;;;;;;;2.60;2.40;;;10.70;48.30;;;;;;4948188;28;20823;-83
2022/04/18 05:56:43;;;;;;;3.10;2.43;;;10.60;48.60;;;;;;4945828;28;20478;-85
2022/04/18 05:59:16;;;;;;;3.20;2.40;;;10.60;48.80;;;;;;4964843;23;20915;-84
2022/04/18 06:01:43;;;;;;;3.07;2.87;;;10.70;49.00;;;;;;4971767;28;20618;-84
2022/04/18 06:04:11;;;;;;;4.40;2.53;;;11.50;49.20;;;;;;4988362;28;20567;-85
2022/04/18 06:06:39;;;;;;;3.10;2.87;;;13.70;47.90;;;;;;4973069;28;21728;-85
2022/04/18 06:09:08;;;;;;;3.10;2.80;;;17.10;43.30;;;;;;4957151;28;20515;-86
2022/04/18 06:11:36;;;;;;;4.77;2.40;;;19.50;38.80;;;;;;4954369;28;20478;-86
2022/04/18 06:14:04;;;;;;;2.63;2.50;;;21.30;36.00;;;;;;4958966;28;20460;-87
2022/04/18 06:16:31;;;;;;;2.70;2.50;;;21.70;33.80;;;;;;4954936;28;20488;-85
2022/04/18 06:18:58;;;;;;;2.77;2.57;;;22.30;33.00;;;;;;4975454;28;20500;-86
2022/04/18 06:21:26;;;;;;;2.83;2.50;;;22.70;32.70;;;;;;4968080;28;20518;-85
2022/04/18 06:23:54;;;;;;;2.40;2.30;;;23.90;31.60;;;;;;4954012;28;20460;-86
2022/04/18 06:26:22;;;;;;;3.03;2.83;;;23.80;30.30;;;;;;4956324;28;20460;-86
2022/04/18 06:28:51;;;;;;;2.27;2.07;;;23.40;30.50;;;;;;4967104;28;20490;-84
2022/04/18 06:31:18;;;;;;;2.53;2.33;;;23.70;30.30;;;;;;4955468;28;20472;-84
2022/04/18 06:33:45;;;;;;;3.07;2.70;;;23.70;30.00;;;;;;4968280;28;20487;-85
2022/04/18 06:36:12;;;;;;;2.80;2.60;;;23.90;30.20;;;;;;4968377;28;20464;-86
2022/04/18 06:38:39;;;;;;;2.87;2.67;;;24.80;29.70;;;;;;4955751;28;21439;-85
2022/04/18 06:41:08;;;;;;;2.60;2.40;;;25.30;29.20;;;;;;4951948;28;20448;-85
2022/04/18 06:43:35;;;;;;;2.70;2.50;;;25.30;29.00;;;;;;4969081;28;20472;-85
2022/04/18 06:46:03;;;;;;;5.07;3.00;;;25.30;28.60;;;;;;4953065;28;20908;-86
2022/04/18 06:51:10;;;;;;;3.07;2.40;;;25.10;29.00;;;;;;4937901;28;20588;-86
2022/04/18 06:53:37;;;;;;;3.27;2.23;;;25.00;28.80;;;;;;4940467;28;20463;-84
2022/04/18 06:59:24;;;;;;;3.10;2.20;;;24.90;29.10;;;;;;5408353;23;20474;-86
2022/04/18 07:01:51;;;;;;;2.43;2.30;;;24.90;29.10;;;;;;4928427;29;20454;-83
2022/04/18 07:04:27;;;;;;;2.20;2.03;;;24.80;29.30;;;;;;4929127;29;20442;-85
2022/04/18 07:06:54;;;;;;;2.70;2.50;;;25.10;28.90;;;;;;4925170;29;20985;-85
2022/04/18 07:09:23;;;;;;;2.27;2.13;;;26.00;28.30;;;;;;4918422;29;21057;-86
2022/04/18 07:11:51;;;;;;;2.77;2.57;;;26.30;27.90;;;;;;4915721;29;20466;-82
2022/04/18 07:14:18;;;;;;;2.00;1.87;;;26.70;27.50;;;;;;4911329;29;20469;-84
2022/04/18 07:16:44;;;;;;;2.93;2.40;;;26.30;27.70;;;;;;4912554;29;20454;-85
2022/04/18 07:19:12;;;;;;;5.30;2.43;;;26.90;27.40;;;;;;4924742;29;20537;-86
2022/04/18 07:21:41;;;;;;;2.60;2.40;;;26.70;27.60;;;;;;4913917;29;20458;-84
2022/04/18 07:24:08;;;;;;;2.90;2.60;;;27.30;27.30;;;;;;4920525;29;20498;-82
2022/04/18 07:26:37;;;;;;;2.60;2.20;;;26.50;27.30;;;;;;4915299;29;21125;-84
2022/04/18 07:29:10;;;;;;;2.90;2.10;;;26.20;27.10;;;;;;4923417;29;20854;-86
2022/04/18 07:32:33;;;;;;;2.70;2.20;;;26.60;27.20;;;;;;4928141;28;20481;-85
2022/04/18 07:35:53;;;;;;;2.87;2.43;;;26.40;27.30;;;;;;4905168;29;20462;-86
2022/04/18 07:42:40;;;;;;;2.80;2.20;;;26.50;27.20;;;;;;4925941;29;20449;-87
2022/04/18 07:45:07;;;;;;;1.90;1.80;;;26.30;26.80;;;;;;4902749;29;20477;-85
2022/04/18 07:48:16;;;;;;;4.87;2.67;;;25.50;28.10;;;;;;4931008;28;20466;-86
2022/04/18 07:53:54;;;;;;;2.50;2.30;;;25.40;28.70;;;;;;4924007;29;20463;-86
2022/04/18 07:56:28;;;;;;;4.53;2.70;;;26.90;27.30;;;;;;4938792;28;20449;-86
2022/04/18 07:58:59;;;;;;;2.00;1.90;;;27.00;26.70;;;;;;4940133;28;20469;-86
2022/04/18 08:01:37;;;;;;;3.00;2.80;;;26.70;26.70;;;;;;4940555;28;20471;-84
2022/04/18 08:04:06;;;;;;;2.80;2.20;;;26.80;26.90;;;;;;4927189;29;20479;-84
2022/04/18 08:07:08;;;;;;;2.90;2.60;;;27.10;26.90;;;;;;4935564;29;20461;-84
2022/04/18 08:09:38;;;;;;;2.80;2.50;;;27.10;26.30;;;;;;4930177;28;20472;-85
2022/04/18 08:12:15;;;;;;;2.70;2.50;;;26.30;26.70;;;;;;4919438;29;20458;-83
2022/04/18 08:14:42;;;;;;;2.70;2.50;;;25.90;27.50;;;;;;4932573;29;20459;-87
2022/04/18 08:20:20;;;;;;;3.30;2.40;;;28.60;26.00;;;;;;4946770;28;20539;-87
2022/04/18 08:25:59;;;;;;;3.13;2.93;;;28.50;25.50;;;;;;4947469;28;20490;-85
2022/04/18 08:28:29;;;;;;;2.83;2.40;;;28.60;25.00;;;;;;4935117;28;20480;-84
2022/04/18 08:31:07;;;;;;;3.10;2.80;;;28.70;25.20;;;;;;4951956;28;20488;-83
2022/04/18 08:33:44;;;;;;;2.97;2.43;;;27.70;25.60;;;;;;4938343;28;20480;-85
2022/04/18 08:36:48;;;;;;;4.00;3.17;;;27.80;25.60;;;;;;4935024;28;20460;-86
2022/04/18 08:39:33;;;;;;;4.23;2.77;;;29.20;25.30;;;;;;4952180;28;20524;-83
2022/04/18 08:42:01;;;;;;;2.80;2.60;;;27.60;25.00;;;;;;4957638;28;20856;-85
2022/04/18 08:44:32;;;;;;;3.23;2.93;;;26.50;26.30;;;;;;4952799;28;20460;-85
2022/04/18 08:47:04;;;;;;;2.70;2.50;;;27.20;26.00;;;;;;4954897;28;20495;-87
2022/04/18 08:52:54;;;;;;;3.10;2.83;;;27.60;25.40;;;;;;4965448;28;20536;-84
2022/04/18 08:55:26;;;;;;;3.63;3.33;;;27.50;25.70;;;;;;4946614;28;21175;-82
2022/04/18 08:58:05;;;;;;;3.00;2.80;;;27.80;25.50;;;;;;4968111;28;20543;-85
2022/04/18 09:00:54;;;;;;;2.67;2.47;;;27.70;25.50;;;;;;4945122;28;20463;-85
2022/04/18 09:03:28;;;;;;;3.53;3.23;;;26.40;26.30;;;;;;4945308;28;20506;-86
2022/04/18 09:06:41;;;;;;;3.20;2.90;;;26.00;27.00;;;;;;4947897;28;20491;-85
2022/04/18 09:09:10;;;;;;;3.13;2.83;;;28.00;25.90;;;;;;4940459;28;20942;-87
2022/04/18 09:11:46;;;;;;;3.20;3.00;;;29.00;24.90;;;;;;4947741;28;20519;-84
2022/04/18 09:17:34;;;;;;;3.07;2.87;;;27.70;26.00;;;;;;4959904;28;20504;-86
2022/04/18 09:20:13;;;;;;;3.77;2.93;;;28.40;25.20;;;;;;4934098;28;20472;-85
2022/04/18 09:23:04;;;;;;;4.17;2.97;;;28.50;24.90;;;;;;4947271;28;20457;-86
2022/04/18 09:26:08;;;;;;;3.23;2.93;;;28.30;24.80;;;;;;4950331;28;20457;-88
2022/04/18 09:28:37;;;;;;;3.17;2.97;;;28.20;25.30;;;;;;5134498;23;20505;-83
2022/04/18 09:31:12;;;;;;;3.77;3.47;;;28.60;25.30;;;;;;4967036;28;20507;-85
2022/04/18 09:33:55;;;;;;;3.00;2.80;;;28.90;24.60;;;;;;4955529;28;20480;-83
2022/04/18 09:36:24;;;;;;;3.33;3.03;;;29.10;23.90;;;;;;4949886;28;20498;-83
2022/04/18 09:38:52;;;;;;;2.80;2.60;;;28.70;24.00;;;;;;4950633;28;20485;-84
2022/04/18 09:41:27;;;;;;;3.33;3.03;;;28.10;24.20;;;;;;4951218;28;20461;-86
2022/04/18 09:43:55;;;;;;;3.93;2.53;;;27.80;24.60;;;;;;4972465;28;20483;-87
2022/04/18 09:46:23;;;;;;;3.70;3.40;;;27.80;24.60;;;;;;4958282;28;20705;-89
2022/04/18 09:48:52;;;;;;;5.23;3.43;;;28.00;23.70;;;;;;4956978;28;20531;-87
2022/04/18 09:51:25;;;;;;;3.20;3.00;;;27.10;24.50;;;;;;4955437;28;20473;-88
2022/04/18 09:53:54;;;;;;;3.63;3.37;;;27.00;24.70;;;;;;4953745;28;20471;-87
2022/04/18 09:56:27;;;;;;;3.77;3.20;;;27.00;24.60;;;;;;4960417;28;20568;-84
2022/04/18 09:58:55;;;;;;;3.13;2.93;;;26.60;24.60;;;;;;4995187;23;20497;-85
2022/04/18 10:01:33;;;;;;;3.00;2.70;;;26.90;24.70;;;;;;4951489;28;20453;-87
2022/04/18 10:04:02;;;;;;;3.07;2.87;;;27.00;24.30;;;;;;4952573;28;20457;-85
2022/04/18 10:06:29;;;;;;;3.27;3.07;;;26.70;24.40;;;;;;4957870;28;20556;-86
2022/04/18 10:08:58;;;;;;;3.20;2.90;;;26.80;24.50;;;;;;4920894;29;20921;-84
2022/04/18 10:11:25;;;;;;;3.00;2.80;;;27.20;24.20;;;;;;4913441;29;20488;-86
2022/04/18 10:14:21;;;;;;;3.07;2.87;;;26.80;24.70;;;;;;4914999;29;20465;-86
2022/04/18 10:16:54;;;;;;;4.20;2.50;;;26.40;24.80;;;;;;4925110;29;20469;-89
2022/04/18 10:23:40;;;;;;;2.80;2.60;;;26.60;25.10;;;;;;4873279;29;20524;-85
2022/04/18 10:26:45;;;;;;;4.03;3.60;;;26.80;24.60;;;;;;4860016;29;20632;-86
2022/04/18 10:29:53;;;;;;;2.90;2.57;;;26.90;24.60;;;;;;4912526;29;20494;-85
2022/04/18 10:32:24;;;;;;;4.07;3.10;;;26.80;24.90;;;;;;4895462;29;20474;-86
2022/04/18 10:34:52;;;;;;;3.20;2.90;;;27.60;24.10;;;;;;4910897;29;20518;-85
2022/04/18 10:37:27;;;;;;;3.40;3.10;;;27.40;23.90;;;;;;4925010;29;20558;-85
2022/04/18 10:40:05;;;;;;;3.30;3.00;;;27.00;24.00;;;;;;4926031;29;20480;-85
2022/04/18 10:42:37;;;;;;;2.83;2.63;;;27.40;24.30;;;;;;4919270;29;20489;-84
2022/04/18 10:45:13;;;;;;;2.90;2.70;;;27.20;24.10;;;;;;4911300;29;20466;-85
2022/04/18 10:48:00;;;;;;;3.23;2.93;;;26.90;24.40;;;;;;4910378;29;20469;-82
2022/04/18 10:50:35;;;;;;;3.60;3.30;;;26.30;24.60;;;;;;4926405;29;20504;-87
2022/04/18 10:53:21;;;;;;;3.60;3.30;;;26.10;24.90;;;;;;4911846;29;20461;-84
2022/04/18 10:55:51;;;;;;;3.07;2.77;;;25.90;25.30;;;;;;4926549;29;20473;-85
2022/04/18 10:58:24;;;;;;;2.87;2.60;;;26.60;25.40;;;;;;4936808;28;20477;-86
2022/04/18 11:00:53;;;;;;;3.03;2.57;;;26.30;25.30;;;;;;4945740;28;20489;-85
2022/04/18 11:03:43;;;;;;;5.17;3.30;;;26.60;25.40;;;;;;4944058;28;20453;-86
2022/04/18 11:06:22;;;;;;;3.00;2.80;;;26.00;25.10;;;;;;4945075;28;22288;-85
2022/04/18 11:09:09;;;;;;;3.30;2.70;;;26.30;25.30;;;;;;4945453;28;20480;-87
2022/04/18 11:12:08;;;;;;;3.17;2.87;;;26.60;25.10;;;;;;4950868;28;20480;-86
2022/04/18 11:14:38;;;;;;;2.90;2.70;;;26.20;25.30;;;;;;4949415;28;20457;-86
2022/04/18 11:17:11;;;;;;;2.73;2.50;;;25.40;26.00;;;;;;4948017;28;20452;-85
2022/04/18 11:19:43;;;;;;;3.00;2.80;;;25.70;26.30;;;;;;4945134;28;20477;-85
2022/04/18 11:22:23;;;;;;;2.77;2.57;;;26.70;25.00;;;;;;4944034;28;20465;-82
2022/04/18 11:25:01;;;;;;;2.80;2.60;;;26.70;24.70;;;;;;4945058;28;20531;-83
2022/04/18 11:27:31;;;;;;;3.00;2.60;;;24.70;26.00;;;;;;4943620;28;20480;-86
2022/04/18 11:30:14;;;;;;;3.67;3.37;;;24.40;26.60;;;;;;4962632;28;20469;-86
2022/04/18 11:33:22;;;;;;;3.23;3.03;;;25.30;26.30;;;;;;4967652;28;20461;-85
2022/04/18 11:36:06;;;;;;;2.30;2.20;;;24.90;26.30;;;;;;4961470;28;20512;-86
2022/04/18 11:38:33;;;;;;;2.90;2.60;;;25.90;25.90;;;;;;4968613;28;20460;-86
2022/04/18 11:41:26;;;;;;;3.00;2.70;;;26.00;25.80;;;;;;4969850;28;20473;-86
2022/04/18 11:43:58;;;;;;;3.10;2.80;;;26.00;25.40;;;;;;4954307;28;20457;-85
2022/04/18 11:46:31;;;;;;;4.43;3.40;;;26.50;25.20;;;;;;4955082;29;20536;-85
2022/04/18 11:49:01;;;;;;;3.03;2.50;;;26.30;25.30;;;;;;4973927;23;20508;-85
2022/04/18 11:51:40;;;;;;;2.87;2.40;;;25.60;25.50;;;;;;4958122;28;20492;-86
2022/04/18 11:54:08;;;;;;;2.97;2.77;;;24.90;25.90;;;;;;4950103;28;20465;-85
2022/04/18 11:56:35;;;;;;;4.07;2.23;;;24.90;26.20;;;;;;4954345;28;22047;-87
2022/04/18 11:59:03;;;;;;;2.20;2.10;;;25.10;26.30;;;;;;4950515;28;20492;-86
2022/04/18 12:07:03;;;;;;;2.37;2.27;;;26.80;24.60;;;;;;4954452;28;20465;-85
2022/04/18 12:09:32;;;;;;;2.20;2.00;;;26.80;24.30;;;;;;4950584;28;20565;-84
2022/04/18 12:12:02;;;;;;;2.33;2.23;;;26.60;24.80;;;;;;4948293;28;20494;-84
2022/04/18 12:14:30;;;;;;;2.97;2.77;;;26.20;24.80;;;;;;4953282;28;20465;-85
2022/04/18 12:16:59;;;;;;;1.97;1.87;;;26.90;24.60;;;;;;4955731;28;20453;-84
2022/04/18 12:19:28;;;;;;;1.90;1.80;;;26.70;23.90;;;;;;4954275;28;20516;-84
2022/04/18 12:21:57;;;;;;;2.13;2.03;;;26.60;23.90;;;;;;4953148;28;20471;-85
2022/04/18 12:24:24;;;;;;;3.17;2.40;;;25.90;24.20;;;;;;4959947;28;20488;-85
2022/04/18 12:26:55;;;;;;;2.80;1.80;;;25.30;24.60;;;;;;4950390;28;20521;-86
2022/04/18 12:29:23;;;;;;;2.03;1.93;;;26.00;24.50;;;;;;4951143;28;20576;-84
2022/04/18 12:31:59;;;;;;;1.77;1.67;;;26.10;24.10;;;;;;4949259;28;20481;-85
2022/04/18 12:34:26;;;;;;;2.90;1.90;;;24.90;24.80;;;;;;4951595;28;20532;-84
2022/04/18 12:36:57;;;;;;;2.53;1.50;;;25.40;25.40;;;;;;4951272;28;20465;-87
2022/04/18 12:39:25;;;;;;;1.63;1.53;;;26.20;24.60;;;;;;4952484;28;20471;-86
2022/04/18 12:42:03;;;;;;;3.60;1.93;;;26.20;24.10;;;;;;4954915;28;20468;-85
2022/04/18 12:44:30;;;;;;;1.50;1.40;;;25.70;24.40;;;;;;4956098;28;20486;-86
2022/04/18 12:46:57;;;;;;;1.90;1.77;;;25.30;24.80;;;;;;4951108;28;20445;-86
2022/04/18 12:49:25;;;;;;;1.97;1.87;;;25.50;24.80;;;;;;4950969;28;20476;-86
2022/04/18 12:51:54;;;;;;;4.83;1.90;;;25.40;24.70;;;;;;4951606;28;20495;-88
2022/04/18 12:55:09;;;;;;;2.00;1.80;;;25.40;25.00;;;;;;4948717;28;20559;-88
2022/04/18 12:57:35;;;;;;;1.57;1.47;;;24.70;25.40;;;;;;4925935;28;20479;-87
2022/04/18 13:01:01;;;;;;;2.37;2.20;;;25.30;25.10;;;;;;4956335;28;20508;-87
2022/04/18 13:03:40;;;;;;;1.57;1.47;;;25.70;24.80;;;;;;4893398;28;20453;-86
2022/04/18 13:06:38;;;;;;;2.53;2.00;;;25.70;24.80;;;;;;4949255;28;20481;-85
2022/04/18 13:09:25;;;;;;;1.83;1.70;;;25.50;25.10;;;;;;4944907;28;21108;-85
2022/04/18 13:12:07;;;;;;;2.00;1.67;;;25.30;25.60;;;;;;4954620;28;20508;-87
2022/04/18 13:14:58;;;;;;;1.70;1.60;;;26.00;24.80;;;;;;4955957;28;20449;-85
2022/04/18 13:17:28;;;;;;;2.00;1.60;;;25.60;24.70;;;;;;4957700;28;20996;-84
2022/04/18 13:19:58;;;;;;;1.60;1.50;;;25.10;25.30;;;;;;4950369;28;21007;-85
2022/04/18 13:22:33;;;;;;;2.00;1.90;;;25.60;25.10;;;;;;4952991;28;20479;-87
2022/04/18 13:25:09;;;;;;;2.90;1.40;;;25.80;24.80;;;;;;4956598;28;20464;-85
2022/04/18 13:27:37;;;;;;;1.60;1.50;;;26.20;24.90;;;;;;4953574;28;20459;-86
2022/04/18 13:30:04;;;;;;;2.03;1.80;;;26.10;24.80;;;;;;4951249;28;20480;-86
2022/04/18 13:32:42;;;;;;;3.20;1.90;;;25.60;25.10;;;;;;4948451;28;20495;-86
2022/04/18 13:39:11;;;;;;;1.83;1.70;;;25.10;25.70;;;;;;4978157;28;20460;-88
2022/04/18 13:41:53;;;;;;;1.63;1.53;;;25.30;25.70;;;;;;4979381;28;20445;-87
2022/04/18 13:45:30;;;;;;;4.10;1.37;;;25.80;25.10;;;;;;4977377;28;20528;-87
2022/04/18 13:48:40;;;;;;;2.10;1.90;;;25.30;25.50;;;;;;4913154;29;20454;-84
2022/04/18 13:51:45;;;;;;;1.60;1.50;;;25.70;25.30;;;;;;4909288;29;20490;-84
2022/04/18 13:55:02;;;;;;;2.10;1.73;;;25.80;25.40;;;;;;4922803;29;20805;-85
2022/04/18 14:01:38;;;;;;;2.33;1.60;;;25.20;26.00;;;;;;4922325;29;21002;-84
2022/04/18 14:13:03;;;;;;;3.83;2.10;;;25.50;26.00;;;;;;4865597;29;20502;-87
2022/04/18 14:22:36;;;;;;;1.60;1.50;;;25.20;25.80;;;;;;4842702;29;20461;-88
2022/04/18 14:26:13;;;;;;;;;;;;;;;;;;;;;
2022/04/18 14:29:41;;;;;;;3.27;1.90;;;24.60;26.10;;;;;;4954697;23;20506;-85
2022/04/18 14:43:35;;;;;;;2.00;1.80;;;24.90;26.20;;;;;;4886916;29;20924;-85
2022/04/18 14:50:46;;;;;;;1.67;1.50;;;24.50;26.30;;;;;;4894783;29;20495;-85
2022/04/18 15:05:39;;;;;;;1.37;1.27;;;24.20;27.50;;;;;;4897263;29;20485;-86
2022/04/18 15:13:04;;;;;;;;;;;;;;;;;;;;;
2022/04/18 15:16:41;;;;;;;1.40;1.30;;;24.20;26.80;;;;;;5020642;28;20443;-88
2022/04/18 15:19:32;;;;;;;1.73;1.63;;;24.20;26.90;;;;;;5012331;28;20579;-85
2022/04/18 15:22:18;;;;;;;1.93;1.70;;;24.30;26.70;;;;;;4961912;28;20454;-86
2022/04/18 15:32:21;;;;;;;1.40;1.30;;;23.40;27.40;;;;;;4975699;28;20489;-84